sensor_id;sensor_type;location;lat;lon;timestamp;P1;durP1;ratioP1;P2;durP2;ratioP2
75044;SDS011;63614;56.026;35.960;2023-07-28T00:02:09;56.60;;;32.08;;
75044;SDS011;63614;56.026;35.960;2023-07-28T00:04:36;56.83;;;32.27;;
75044;SDS011;63614;56.026;35.960;2023-07-28T00:07:02;54.63;;;32.47;;
75044;SDS011;63614;56.026;35.960;2023-07-28T00:09:29;51.45;;;33.33;;
75044;SDS011;63614;56.026;35.960;2023-07-28T00:11:58;58.00;;;32.97;;
75044;SDS011;63614;56.026;35.960;2023-07-28T00:14:26;53.30;;;33.65;;
75044;SDS011;63614;56.026;35.960;2023-07-28T00:16:53;66.03;;;34.83;;
75044;SDS011;63614;56.026;35.960;2023-07-28T00:19:22;54.03;;;33.30;;
75044;SDS011;63614;56.026;35.960;2023-07-28T00:21:48;56.30;;;33.33;;
75044;SDS011;63614;56.026;35.960;2023-07-28T00:24:15;61.40;;;34.03;;
75044;SDS011;63614;56.026;35.960;2023-07-28T00:26:42;62.20;;;34.50;;
75044;SDS011;63614;56.026;35.960;2023-07-28T00:29:08;64.18;;;35.13;;
75044;SDS011;63614;56.026;35.960;2023-07-28T00:31:35;62.55;;;35.47;;
75044;SDS011;63614;56.026;35.960;2023-07-28T00:34:01;65.40;;;35.53;;
75044;SDS011;63614;56.026;35.960;2023-07-28T00:36:30;69.38;;;36.92;;
75044;SDS011;63614;56.026;35.960;2023-07-28T00:38:57;76.95;;;41.78;;
75044;SDS011;63614;56.026;35.960;2023-07-28T00:41:22;76.60;;;41.22;;
75044;SDS011;63614;56.026;35.960;2023-07-28T00:43:49;84.20;;;44.03;;
75044;SDS011;63614;56.026;35.960;2023-07-28T00:46:15;82.25;;;45.40;;
75044;SDS011;63614;56.026;35.960;2023-07-28T00:48:41;78.40;;;45.00;;
75044;SDS011;63614;56.026;35.960;2023-07-28T00:51:09;92.20;;;46.83;;
75044;SDS011;63614;56.026;35.960;2023-07-28T00:53:35;86.85;;;45.58;;
75044;SDS011;63614;56.026;35.960;2023-07-28T00:56:04;85.40;;;44.72;;
75044;SDS011;63614;56.026;35.960;2023-07-28T00:58:31;78.75;;;43.00;;
75044;SDS011;63614;56.026;35.960;2023-07-28T01:00:58;67.27;;;37.93;;
75044;SDS011;63614;56.026;35.960;2023-07-28T01:03:24;65.05;;;36.78;;
75044;SDS011;63614;56.026;35.960;2023-07-28T01:05:55;54.97;;;32.40;;
75044;SDS011;63614;56.026;35.960;2023-07-28T01:08:42;57.10;;;33.08;;
75044;SDS011;63614;56.026;35.960;2023-07-28T01:11:15;47.63;;;30.27;;
75044;SDS011;63614;56.026;35.960;2023-07-28T01:13:41;47.47;;;31.15;;
75044;SDS011;63614;56.026;35.960;2023-07-28T01:16:07;52.22;;;28.52;;
75044;SDS011;63614;56.026;35.960;2023-07-28T01:18:33;49.95;;;27.85;;
75044;SDS011;63614;56.026;35.960;2023-07-28T01:21:00;41.20;;;25.90;;
75044;SDS011;63614;56.026;35.960;2023-07-28T01:26:09;37.58;;;24.70;;
75044;SDS011;63614;56.026;35.960;2023-07-28T01:28:37;40.75;;;23.98;;
75044;SDS011;63614;56.026;35.960;2023-07-28T01:31:05;36.03;;;21.13;;
75044;SDS011;63614;56.026;35.960;2023-07-28T01:33:32;33.58;;;20.88;;
75044;SDS011;63614;56.026;35.960;2023-07-28T01:35:58;40.38;;;22.92;;
75044;SDS011;63614;56.026;35.960;2023-07-28T01:38:27;33.30;;;20.75;;
75044;SDS011;63614;56.026;35.960;2023-07-28T01:40:53;35.28;;;20.13;;
75044;SDS011;63614;56.026;35.960;2023-07-28T01:43:20;32.10;;;19.52;;
75044;SDS011;63614;56.026;35.960;2023-07-28T01:45:45;32.35;;;20.35;;
75044;SDS011;63614;56.026;35.960;2023-07-28T01:48:11;38.55;;;20.13;;
75044;SDS011;63614;56.026;35.960;2023-07-28T01:50:38;30.98;;;19.30;;
75044;SDS011;63614;56.026;35.960;2023-07-28T01:53:04;31.17;;;19.38;;
75044;SDS011;63614;56.026;35.960;2023-07-28T01:55:31;33.92;;;18.75;;
75044;SDS011;63614;56.026;35.960;2023-07-28T01:57:58;30.30;;;19.75;;
75044;SDS011;63614;56.026;35.960;2023-07-28T02:00:25;27.52;;;19.02;;
75044;SDS011;63614;56.026;35.960;2023-07-28T02:02:52;39.40;;;19.35;;
75044;SDS011;63614;56.026;35.960;2023-07-28T02:05:18;33.42;;;20.05;;
75044;SDS011;63614;56.026;35.960;2023-07-28T02:07:45;28.93;;;18.80;;
75044;SDS011;63614;56.026;35.960;2023-07-28T02:10:11;33.40;;;19.05;;
75044;SDS011;63614;56.026;35.960;2023-07-28T02:12:37;27.65;;;18.15;;
75044;SDS011;63614;56.026;35.960;2023-07-28T02:15:05;32.17;;;18.25;;
75044;SDS011;63614;56.026;35.960;2023-07-28T02:17:33;27.05;;;17.58;;
75044;SDS011;63614;56.026;35.960;2023-07-28T02:19:59;25.35;;;17.02;;
75044;SDS011;63614;56.026;35.960;2023-07-28T02:22:26;26.05;;;18.35;;
75044;SDS011;63614;56.026;35.960;2023-07-28T02:24:52;32.80;;;18.33;;
75044;SDS011;63614;56.026;35.960;2023-07-28T02:27:18;28.98;;;17.85;;
75044;SDS011;63614;56.026;35.960;2023-07-28T02:29:44;27.55;;;18.98;;
75044;SDS011;63614;56.026;35.960;2023-07-28T02:32:10;32.90;;;18.85;;
75044;SDS011;63614;56.026;35.960;2023-07-28T02:34:36;30.05;;;17.08;;
75044;SDS011;63614;56.026;35.960;2023-07-28T02:37:02;27.13;;;17.08;;
75044;SDS011;63614;56.026;35.960;2023-07-28T02:39:28;29.83;;;17.00;;
75044;SDS011;63614;56.026;35.960;2023-07-28T02:41:54;28.15;;;16.80;;
75044;SDS011;63614;56.026;35.960;2023-07-28T02:44:20;27.10;;;17.45;;
75044;SDS011;63614;56.026;35.960;2023-07-28T02:46:46;28.80;;;17.45;;
75044;SDS011;63614;56.026;35.960;2023-07-28T02:49:11;29.77;;;16.52;;
75044;SDS011;63614;56.026;35.960;2023-07-28T02:51:38;32.93;;;16.13;;
75044;SDS011;63614;56.026;35.960;2023-07-28T02:54:04;25.00;;;15.70;;
75044;SDS011;63614;56.026;35.960;2023-07-28T02:56:30;25.13;;;15.95;;
75044;SDS011;63614;56.026;35.960;2023-07-28T02:59:00;24.70;;;15.40;;
75044;SDS011;63614;56.026;35.960;2023-07-28T03:01:29;23.63;;;14.88;;
75044;SDS011;63614;56.026;35.960;2023-07-28T03:04:02;24.77;;;14.85;;
75044;SDS011;63614;56.026;35.960;2023-07-28T03:06:33;31.75;;;15.00;;
75044;SDS011;63614;56.026;35.960;2023-07-28T03:08:59;30.70;;;13.85;;
75044;SDS011;63614;56.026;35.960;2023-07-28T03:11:48;22.50;;;13.52;;
75044;SDS011;63614;56.026;35.960;2023-07-28T03:14:14;24.75;;;14.55;;
75044;SDS011;63614;56.026;35.960;2023-07-28T03:16:42;21.67;;;13.73;;
75044;SDS011;63614;56.026;35.960;2023-07-28T03:19:08;27.10;;;13.63;;
75044;SDS011;63614;56.026;35.960;2023-07-28T03:21:33;18.67;;;12.82;;
75044;SDS011;63614;56.026;35.960;2023-07-28T03:23:59;24.65;;;14.32;;
75044;SDS011;63614;56.026;35.960;2023-07-28T03:26:25;23.13;;;14.32;;
75044;SDS011;63614;56.026;35.960;2023-07-28T03:28:51;21.40;;;14.07;;
75044;SDS011;63614;56.026;35.960;2023-07-28T03:31:17;21.02;;;14.63;;
75044;SDS011;63614;56.026;35.960;2023-07-28T03:33:43;27.38;;;13.45;;
75044;SDS011;63614;56.026;35.960;2023-07-28T03:36:09;16.95;;;12.68;;
75044;SDS011;63614;56.026;35.960;2023-07-28T03:38:35;21.23;;;13.70;;
75044;SDS011;63614;56.026;35.960;2023-07-28T03:41:03;21.55;;;13.93;;
75044;SDS011;63614;56.026;35.960;2023-07-28T03:43:29;21.83;;;13.90;;
75044;SDS011;63614;56.026;35.960;2023-07-28T03:45:55;20.27;;;13.50;;
75044;SDS011;63614;56.026;35.960;2023-07-28T03:48:21;27.63;;;13.35;;
75044;SDS011;63614;56.026;35.960;2023-07-28T03:50:47;28.52;;;13.43;;
75044;SDS011;63614;56.026;35.960;2023-07-28T03:53:13;24.40;;;12.90;;
75044;SDS011;63614;56.026;35.960;2023-07-28T03:55:39;27.00;;;13.35;;
75044;SDS011;63614;56.026;35.960;2023-07-28T03:58:04;22.35;;;13.45;;
75044;SDS011;63614;56.026;35.960;2023-07-28T04:00:30;27.23;;;13.57;;
75044;SDS011;63614;56.026;35.960;2023-07-28T04:02:56;20.80;;;12.88;;
75044;SDS011;63614;56.026;35.960;2023-07-28T04:05:22;20.27;;;12.80;;
75044;SDS011;63614;56.026;35.960;2023-07-28T04:07:48;28.27;;;12.73;;
75044;SDS011;63614;56.026;35.960;2023-07-28T04:10:14;21.90;;;12.33;;
75044;SDS011;63614;56.026;35.960;2023-07-28T04:12:41;28.02;;;12.82;;
75044;SDS011;63614;56.026;35.960;2023-07-28T04:15:07;27.27;;;13.30;;
75044;SDS011;63614;56.026;35.960;2023-07-28T04:17:33;18.83;;;12.57;;
75044;SDS011;63614;56.026;35.960;2023-07-28T04:19:59;21.15;;;12.55;;
75044;SDS011;63614;56.026;35.960;2023-07-28T04:22:25;22.67;;;13.48;;
75044;SDS011;63614;56.026;35.960;2023-07-28T04:24:52;20.00;;;11.60;;
75044;SDS011;63614;56.026;35.960;2023-07-28T04:27:19;20.50;;;11.57;;
75044;SDS011;63614;56.026;35.960;2023-07-28T04:32:23;21.23;;;11.48;;
75044;SDS011;63614;56.026;35.960;2023-07-28T04:34:52;17.35;;;10.80;;
75044;SDS011;63614;56.026;35.960;2023-07-28T04:37:40;22.77;;;10.80;;
75044;SDS011;63614;56.026;35.960;2023-07-28T04:40:07;17.65;;;10.73;;
75044;SDS011;63614;56.026;35.960;2023-07-28T04:42:37;17.88;;;11.57;;
75044;SDS011;63614;56.026;35.960;2023-07-28T04:45:04;19.73;;;11.80;;
75044;SDS011;63614;56.026;35.960;2023-07-28T04:47:34;21.05;;;10.30;;
75044;SDS011;63614;56.026;35.960;2023-07-28T04:50:01;16.08;;;10.63;;
75044;SDS011;63614;56.026;35.960;2023-07-28T04:52:55;16.80;;;10.48;;
75044;SDS011;63614;56.026;35.960;2023-07-28T04:55:44;16.52;;;10.15;;
75044;SDS011;63614;56.026;35.960;2023-07-28T04:58:10;19.42;;;10.30;;
75044;SDS011;63614;56.026;35.960;2023-07-28T05:00:48;18.73;;;9.90;;
75044;SDS011;63614;56.026;35.960;2023-07-28T05:03:14;19.35;;;11.27;;
75044;SDS011;63614;56.026;35.960;2023-07-28T05:05:48;19.65;;;10.10;;
75044;SDS011;63614;56.026;35.960;2023-07-28T05:08:15;17.92;;;10.27;;
75044;SDS011;63614;56.026;35.960;2023-07-28T05:10:42;17.20;;;10.30;;
75044;SDS011;63614;56.026;35.960;2023-07-28T05:13:10;14.07;;;9.55;;
75044;SDS011;63614;56.026;35.960;2023-07-28T05:15:37;13.85;;;9.10;;
75044;SDS011;63614;56.026;35.960;2023-07-28T05:18:07;17.38;;;9.75;;
75044;SDS011;63614;56.026;35.960;2023-07-28T05:20:53;17.17;;;9.38;;
75044;SDS011;63614;56.026;35.960;2023-07-28T05:23:19;19.98;;;9.95;;
75044;SDS011;63614;56.026;35.960;2023-07-28T05:25:45;14.23;;;10.15;;
75044;SDS011;63614;56.026;35.960;2023-07-28T05:28:14;15.90;;;8.57;;
75044;SDS011;63614;56.026;35.960;2023-07-28T05:30:42;17.00;;;8.85;;
75044;SDS011;63614;56.026;35.960;2023-07-28T05:33:08;14.90;;;7.38;;
75044;SDS011;63614;56.026;35.960;2023-07-28T05:35:46;19.35;;;7.57;;
75044;SDS011;63614;56.026;35.960;2023-07-28T05:38:13;27.67;;;7.95;;
75044;SDS011;63614;56.026;35.960;2023-07-28T05:40:39;12.80;;;6.53;;
75044;SDS011;63614;56.026;35.960;2023-07-28T05:43:05;13.07;;;6.57;;
75044;SDS011;63614;56.026;35.960;2023-07-28T05:45:31;12.00;;;6.20;;
75044;SDS011;63614;56.026;35.960;2023-07-28T05:47:57;10.00;;;5.75;;
75044;SDS011;63614;56.026;35.960;2023-07-28T05:50:23;11.13;;;5.47;;
75044;SDS011;63614;56.026;35.960;2023-07-28T05:52:48;11.20;;;5.23;;
75044;SDS011;63614;56.026;35.960;2023-07-28T05:55:14;19.40;;;5.67;;
75044;SDS011;63614;56.026;35.960;2023-07-28T05:57:40;10.20;;;5.23;;
75044;SDS011;63614;56.026;35.960;2023-07-28T06:00:08;7.25;;;4.63;;
75044;SDS011;63614;56.026;35.960;2023-07-28T06:02:39;10.98;;;4.50;;
75044;SDS011;63614;56.026;35.960;2023-07-28T06:05:08;12.60;;;5.30;;
75044;SDS011;63614;56.026;35.960;2023-07-28T06:07:34;11.13;;;4.43;;
75044;SDS011;63614;56.026;35.960;2023-07-28T06:09:59;10.13;;;4.13;;
75044;SDS011;63614;56.026;35.960;2023-07-28T06:12:25;9.10;;;4.22;;
75044;SDS011;63614;56.026;35.960;2023-07-28T06:14:51;7.78;;;4.28;;
75044;SDS011;63614;56.026;35.960;2023-07-28T06:17:18;8.77;;;3.88;;
75044;SDS011;63614;56.026;35.960;2023-07-28T06:19:44;7.18;;;3.90;;
75044;SDS011;63614;56.026;35.960;2023-07-28T06:22:11;7.35;;;4.78;;
75044;SDS011;63614;56.026;35.960;2023-07-28T06:24:43;13.55;;;4.35;;
75044;SDS011;63614;56.026;35.960;2023-07-28T06:27:08;9.73;;;4.50;;
75044;SDS011;63614;56.026;35.960;2023-07-28T06:29:37;11.85;;;4.45;;
75044;SDS011;63614;56.026;35.960;2023-07-28T06:32:03;14.10;;;4.97;;
75044;SDS011;63614;56.026;35.960;2023-07-28T06:34:29;8.93;;;4.67;;
75044;SDS011;63614;56.026;35.960;2023-07-28T06:36:55;10.48;;;4.88;;
75044;SDS011;63614;56.026;35.960;2023-07-28T06:39:21;8.87;;;4.60;;
75044;SDS011;63614;56.026;35.960;2023-07-28T06:41:46;13.65;;;4.70;;
75044;SDS011;63614;56.026;35.960;2023-07-28T06:44:14;13.15;;;5.05;;
75044;SDS011;63614;56.026;35.960;2023-07-28T06:46:40;8.65;;;4.20;;
75044;SDS011;63614;56.026;35.960;2023-07-28T06:49:06;12.20;;;4.03;;
75044;SDS011;63614;56.026;35.960;2023-07-28T06:53:59;12.00;;;3.60;;
75044;SDS011;63614;56.026;35.960;2023-07-28T06:56:25;7.00;;;3.55;;
75044;SDS011;63614;56.026;35.960;2023-07-28T06:58:51;8.43;;;3.40;;
75044;SDS011;63614;56.026;35.960;2023-07-28T07:01:16;8.35;;;2.88;;
75044;SDS011;63614;56.026;35.960;2023-07-28T07:03:44;5.28;;;2.65;;
75044;SDS011;63614;56.026;35.960;2023-07-28T07:06:10;9.35;;;2.60;;
75044;SDS011;63614;56.026;35.960;2023-07-28T07:08:35;6.00;;;2.50;;
75044;SDS011;63614;56.026;35.960;2023-07-28T07:11:01;2.85;;;1.80;;
75044;SDS011;63614;56.026;35.960;2023-07-28T07:13:27;2.63;;;1.75;;
75044;SDS011;63614;56.026;35.960;2023-07-28T07:15:53;6.30;;;1.80;;
75044;SDS011;63614;56.026;35.960;2023-07-28T07:18:19;5.65;;;2.13;;
75044;SDS011;63614;56.026;35.960;2023-07-28T07:20:46;9.32;;;1.80;;
75044;SDS011;63614;56.026;35.960;2023-07-28T07:23:12;13.15;;;1.67;;
75044;SDS011;63614;56.026;35.960;2023-07-28T07:25:38;7.45;;;1.40;;
75044;SDS011;63614;56.026;35.960;2023-07-28T07:28:03;3.95;;;1.30;;
75044;SDS011;63614;56.026;35.960;2023-07-28T07:30:31;5.32;;;1.02;;
75044;SDS011;63614;56.026;35.960;2023-07-28T07:32:59;2.88;;;1.02;;
75044;SDS011;63614;56.026;35.960;2023-07-28T07:35:25;7.28;;;1.50;;
75044;SDS011;63614;56.026;35.960;2023-07-28T07:37:51;5.22;;;1.85;;
75044;SDS011;63614;56.026;35.960;2023-07-28T07:40:17;7.88;;;1.80;;
75044;SDS011;63614;56.026;35.960;2023-07-28T07:42:45;5.55;;;1.58;;
75044;SDS011;63614;56.026;35.960;2023-07-28T07:45:12;5.40;;;1.30;;
75044;SDS011;63614;56.026;35.960;2023-07-28T07:47:39;2.90;;;1.40;;
75044;SDS011;63614;56.026;35.960;2023-07-28T07:50:06;9.23;;;1.70;;
75044;SDS011;63614;56.026;35.960;2023-07-28T07:52:34;11.65;;;1.40;;
75044;SDS011;63614;56.026;35.960;2023-07-28T07:55:01;4.60;;;1.33;;
75044;SDS011;63614;56.026;35.960;2023-07-28T07:57:31;7.28;;;1.70;;
75044;SDS011;63614;56.026;35.960;2023-07-28T07:59:58;4.30;;;1.58;;
75044;SDS011;63614;56.026;35.960;2023-07-28T08:02:24;7.43;;;1.80;;
75044;SDS011;63614;56.026;35.960;2023-07-28T08:04:53;14.00;;;1.73;;
75044;SDS011;63614;56.026;35.960;2023-07-28T08:07:19;9.60;;;1.60;;
75044;SDS011;63614;56.026;35.960;2023-07-28T08:09:45;7.72;;;1.85;;
75044;SDS011;63614;56.026;35.960;2023-07-28T08:12:12;6.72;;;1.55;;
75044;SDS011;63614;56.026;35.960;2023-07-28T08:14:40;3.63;;;1.10;;
75044;SDS011;63614;56.026;35.960;2023-07-28T08:17:06;6.90;;;1.23;;
75044;SDS011;63614;56.026;35.960;2023-07-28T08:19:33;4.07;;;1.20;;
75044;SDS011;63614;56.026;35.960;2023-07-28T08:21:59;3.88;;;1.10;;
75044;SDS011;63614;56.026;35.960;2023-07-28T08:24:25;5.30;;;1.10;;
75044;SDS011;63614;56.026;35.960;2023-07-28T08:26:50;11.25;;;1.17;;
75044;SDS011;63614;56.026;35.960;2023-07-28T08:29:16;2.40;;;0.93;;
75044;SDS011;63614;56.026;35.960;2023-07-28T08:31:42;3.75;;;1.02;;
75044;SDS011;63614;56.026;35.960;2023-07-28T08:34:08;1.67;;;1.10;;
75044;SDS011;63614;56.026;35.960;2023-07-28T08:36:34;8.43;;;1.02;;
75044;SDS011;63614;56.026;35.960;2023-07-28T08:39:00;6.88;;;1.00;;
75044;SDS011;63614;56.026;35.960;2023-07-28T08:41:25;2.03;;;0.93;;
75044;SDS011;63614;56.026;35.960;2023-07-28T08:43:52;3.17;;;1.00;;
75044;SDS011;63614;56.026;35.960;2023-07-28T08:46:19;6.38;;;0.80;;
75044;SDS011;63614;56.026;35.960;2023-07-28T08:48:45;1.10;;;0.70;;
75044;SDS011;63614;56.026;35.960;2023-07-28T08:51:12;4.15;;;0.90;;
75044;SDS011;63614;56.026;35.960;2023-07-28T08:53:39;1.52;;;0.80;;
75044;SDS011;63614;56.026;35.960;2023-07-28T08:56:05;1.42;;;0.82;;
75044;SDS011;63614;56.026;35.960;2023-07-28T09:00:59;3.45;;;0.80;;
75044;SDS011;63614;56.026;35.960;2023-07-28T09:03:28;4.30;;;0.80;;
75044;SDS011;63614;56.026;35.960;2023-07-28T09:06:01;2.42;;;0.90;;
75044;SDS011;63614;56.026;35.960;2023-07-28T09:08:30;2.75;;;1.00;;
75044;SDS011;63614;56.026;35.960;2023-07-28T09:10:57;2.20;;;1.00;;
75044;SDS011;63614;56.026;35.960;2023-07-28T09:13:34;1.40;;;0.95;;
75044;SDS011;63614;56.026;35.960;2023-07-28T09:16:16;3.80;;;1.30;;
75044;SDS011;63614;56.026;35.960;2023-07-28T09:18:43;5.53;;;1.23;;
75044;SDS011;63614;56.026;35.960;2023-07-28T09:21:19;2.28;;;1.30;;
75044;SDS011;63614;56.026;35.960;2023-07-28T09:23:47;1.75;;;0.70;;
75044;SDS011;63614;56.026;35.960;2023-07-28T09:26:16;2.72;;;0.77;;
75044;SDS011;63614;56.026;35.960;2023-07-28T09:28:42;1.15;;;0.70;;
75044;SDS011;63614;56.026;35.960;2023-07-28T09:31:08;1.03;;;0.60;;
75044;SDS011;63614;56.026;35.960;2023-07-28T09:33:36;2.53;;;0.60;;
75044;SDS011;63614;56.026;35.960;2023-07-28T09:36:12;1.70;;;0.60;;
75044;SDS011;63614;56.026;35.960;2023-07-28T09:38:40;3.13;;;0.93;;
75044;SDS011;63614;56.026;35.960;2023-07-28T09:41:07;1.25;;;0.70;;
75044;SDS011;63614;56.026;35.960;2023-07-28T09:43:39;2.13;;;0.80;;
75044;SDS011;63614;56.026;35.960;2023-07-28T09:46:06;1.20;;;0.70;;
75044;SDS011;63614;56.026;35.960;2023-07-28T09:48:34;3.05;;;0.90;;
75044;SDS011;63614;56.026;35.960;2023-07-28T09:51:02;5.35;;;1.00;;
75044;SDS011;63614;56.026;35.960;2023-07-28T09:53:40;2.55;;;0.80;;
75044;SDS011;63614;56.026;35.960;2023-07-28T09:56:14;2.92;;;0.80;;
75044;SDS011;63614;56.026;35.960;2023-07-28T09:58:43;3.00;;;1.02;;
75044;SDS011;63614;56.026;35.960;2023-07-28T10:01:14;1.52;;;0.80;;
75044;SDS011;63614;56.026;35.960;2023-07-28T10:03:41;4.63;;;0.85;;
75044;SDS011;63614;56.026;35.960;2023-07-28T10:06:06;1.70;;;0.80;;
75044;SDS011;63614;56.026;35.960;2023-07-28T10:08:33;4.55;;;0.93;;
75044;SDS011;63614;56.026;35.960;2023-07-28T10:10:58;13.35;;;1.02;;
75044;SDS011;63614;56.026;35.960;2023-07-28T10:13:26;3.55;;;0.70;;
75044;SDS011;63614;56.026;35.960;2023-07-28T10:15:54;1.80;;;0.70;;
75044;SDS011;63614;56.026;35.960;2023-07-28T10:18:21;3.28;;;0.80;;
75044;SDS011;63614;56.026;35.960;2023-07-28T10:20:47;1.80;;;0.82;;
75044;SDS011;63614;56.026;35.960;2023-07-28T10:23:15;1.45;;;0.85;;
75044;SDS011;63614;56.026;35.960;2023-07-28T10:25:44;3.75;;;0.98;;
75044;SDS011;63614;56.026;35.960;2023-07-28T10:28:43;2.60;;;1.30;;
75044;SDS011;63614;56.026;35.960;2023-07-28T10:31:05;12.88;;;1.60;;
75044;SDS011;63614;56.026;35.960;2023-07-28T10:33:39;2.35;;;0.77;;
75044;SDS011;63614;56.026;35.960;2023-07-28T10:36:15;2.83;;;1.00;;
75044;SDS011;63614;56.026;35.960;2023-07-28T10:38:43;2.70;;;1.00;;
75044;SDS011;63614;56.026;35.960;2023-07-28T10:43:40;7.95;;;1.10;;
75044;SDS011;63614;56.026;35.960;2023-07-28T10:46:09;2.03;;;0.90;;
75044;SDS011;63614;56.026;35.960;2023-07-28T10:48:47;2.65;;;0.90;;
75044;SDS011;63614;56.026;35.960;2023-07-28T10:51:24;4.63;;;1.00;;
75044;SDS011;63614;56.026;35.960;2023-07-28T10:53:56;2.90;;;0.90;;
75044;SDS011;63614;56.026;35.960;2023-07-28T10:56:25;4.53;;;1.00;;
75044;SDS011;63614;56.026;35.960;2023-07-28T10:59:02;2.38;;;0.90;;
75044;SDS011;63614;56.026;35.960;2023-07-28T11:01:39;1.60;;;0.85;;
75044;SDS011;63614;56.026;35.960;2023-07-28T11:06:32;6.45;;;1.08;;
75044;SDS011;63614;56.026;35.960;2023-07-28T11:08:58;1.80;;;0.80;;
75044;SDS011;63614;56.026;35.960;2023-07-28T11:11:23;1.42;;;0.80;;
75044;SDS011;63614;56.026;35.960;2023-07-28T11:13:49;3.53;;;0.88;;
75044;SDS011;63614;56.026;35.960;2023-07-28T11:16:15;1.10;;;0.70;;
75044;SDS011;63614;56.026;35.960;2023-07-28T11:18:41;1.33;;;0.70;;
75044;SDS011;63614;56.026;35.960;2023-07-28T11:21:06;2.65;;;0.93;;
75044;SDS011;63614;56.026;35.960;2023-07-28T11:23:32;1.23;;;0.63;;
75044;SDS011;63614;56.026;35.960;2023-07-28T11:25:58;1.95;;;0.75;;
75044;SDS011;63614;56.026;35.960;2023-07-28T11:28:24;4.75;;;0.98;;
75044;SDS011;63614;56.026;35.960;2023-07-28T11:30:50;2.13;;;0.80;;
75044;SDS011;63614;56.026;35.960;2023-07-28T11:33:16;3.63;;;0.95;;
75044;SDS011;63614;56.026;35.960;2023-07-28T11:35:45;2.38;;;1.08;;
75044;SDS011;63614;56.026;35.960;2023-07-28T11:38:11;2.95;;;0.77;;
75044;SDS011;63614;56.026;35.960;2023-07-28T11:40:39;2.83;;;0.98;;
75044;SDS011;63614;56.026;35.960;2023-07-28T11:43:05;2.03;;;0.85;;
75044;SDS011;63614;56.026;35.960;2023-07-28T11:45:31;2.25;;;0.90;;
75044;SDS011;63614;56.026;35.960;2023-07-28T11:47:57;3.50;;;1.10;;
75044;SDS011;63614;56.026;35.960;2023-07-28T11:50:30;1.50;;;0.90;;
75044;SDS011;63614;56.026;35.960;2023-07-28T11:53:02;2.03;;;1.00;;
75044;SDS011;63614;56.026;35.960;2023-07-28T11:55:29;3.35;;;1.10;;
75044;SDS011;63614;56.026;35.960;2023-07-28T11:57:54;9.93;;;0.77;;
75044;SDS011;63614;56.026;35.960;2023-07-28T12:00:34;3.22;;;0.80;;
75044;SDS011;63614;56.026;35.960;2023-07-28T12:03:12;1.63;;;0.80;;
75044;SDS011;63614;56.026;35.960;2023-07-28T12:05:39;1.10;;;0.70;;
75044;SDS011;63614;56.026;35.960;2023-07-28T12:08:06;3.42;;;0.85;;
75044;SDS011;63614;56.026;35.960;2023-07-28T12:10:34;1.63;;;0.88;;
75044;SDS011;63614;56.026;35.960;2023-07-28T12:13:07;4.10;;;0.90;;
75044;SDS011;63614;56.026;35.960;2023-07-28T12:15:33;4.68;;;1.00;;
75044;SDS011;63614;56.026;35.960;2023-07-28T12:18:08;1.80;;;0.70;;
75044;SDS011;63614;56.026;35.960;2023-07-28T12:20:39;1.40;;;0.65;;
75044;SDS011;63614;56.026;35.960;2023-07-28T12:23:07;2.08;;;0.75;;
75044;SDS011;63614;56.026;35.960;2023-07-28T12:25:35;2.35;;;0.70;;
75044;SDS011;63614;56.026;35.960;2023-07-28T12:28:03;2.13;;;0.68;;
75044;SDS011;63614;56.026;35.960;2023-07-28T12:30:29;6.37;;;0.70;;
75044;SDS011;63614;56.026;35.960;2023-07-28T12:32:54;1.85;;;0.80;;
75044;SDS011;63614;56.026;35.960;2023-07-28T12:35:21;2.03;;;0.75;;
75044;SDS011;63614;56.026;35.960;2023-07-28T12:37:51;8.05;;;1.00;;
75044;SDS011;63614;56.026;35.960;2023-07-28T12:40:17;1.85;;;0.80;;
75044;SDS011;63614;56.026;35.960;2023-07-28T12:42:47;1.58;;;0.80;;
75044;SDS011;63614;56.026;35.960;2023-07-28T12:45:13;4.25;;;0.90;;
75044;SDS011;63614;56.026;35.960;2023-07-28T12:47:41;2.53;;;0.90;;
75044;SDS011;63614;56.026;35.960;2023-07-28T12:50:08;2.05;;;0.80;;
75044;SDS011;63614;56.026;35.960;2023-07-28T12:52:35;5.20;;;1.20;;
75044;SDS011;63614;56.026;35.960;2023-07-28T12:55:01;2.33;;;1.13;;
75044;SDS011;63614;56.026;35.960;2023-07-28T12:57:29;2.78;;;1.20;;
75044;SDS011;63614;56.026;35.960;2023-07-28T12:59:55;4.22;;;1.50;;
75044;SDS011;63614;56.026;35.960;2023-07-28T13:02:20;2.75;;;1.40;;
75044;SDS011;63614;56.026;35.960;2023-07-28T13:04:46;2.72;;;1.48;;
75044;SDS011;63614;56.026;35.960;2023-07-28T13:07:12;3.13;;;1.50;;
75044;SDS011;63614;56.026;35.960;2023-07-28T13:09:38;4.43;;;1.50;;
75044;SDS011;63614;56.026;35.960;2023-07-28T13:12:04;4.40;;;1.70;;
75044;SDS011;63614;56.026;35.960;2023-07-28T13:14:30;2.83;;;1.52;;
75044;SDS011;63614;56.026;35.960;2023-07-28T13:16:56;5.57;;;1.80;;
75044;SDS011;63614;56.026;35.960;2023-07-28T13:19:21;4.63;;;1.90;;
75044;SDS011;63614;56.026;35.960;2023-07-28T13:21:48;5.38;;;1.40;;
75044;SDS011;63614;56.026;35.960;2023-07-28T13:24:13;3.05;;;1.40;;
75044;SDS011;63614;56.026;35.960;2023-07-28T13:26:39;5.32;;;1.63;;
75044;SDS011;63614;56.026;35.960;2023-07-28T13:29:05;4.78;;;1.50;;
75044;SDS011;63614;56.026;35.960;2023-07-28T13:31:32;2.33;;;1.30;;
75044;SDS011;63614;56.026;35.960;2023-07-28T13:33:58;2.45;;;1.23;;
75044;SDS011;63614;56.026;35.960;2023-07-28T13:36:24;2.80;;;1.40;;
75044;SDS011;63614;56.026;35.960;2023-07-28T13:38:50;4.35;;;1.27;;
75044;SDS011;63614;56.026;35.960;2023-07-28T13:41:16;2.28;;;1.48;;
75044;SDS011;63614;56.026;35.960;2023-07-28T13:43:42;4.00;;;1.58;;
75044;SDS011;63614;56.026;35.960;2023-07-28T13:46:07;2.42;;;1.40;;
75044;SDS011;63614;56.026;35.960;2023-07-28T13:48:33;5.85;;;1.40;;
75044;SDS011;63614;56.026;35.960;2023-07-28T13:51:01;2.53;;;1.27;;
75044;SDS011;63614;56.026;35.960;2023-07-28T13:53:28;4.78;;;1.48;;
75044;SDS011;63614;56.026;35.960;2023-07-28T13:55:54;2.45;;;1.30;;
75044;SDS011;63614;56.026;35.960;2023-07-28T13:58:20;7.63;;;1.65;;
75044;SDS011;63614;56.026;35.960;2023-07-28T14:00:46;3.10;;;1.83;;
75044;SDS011;63614;56.026;35.960;2023-07-28T14:03:12;2.58;;;1.67;;
75044;SDS011;63614;56.026;35.960;2023-07-28T14:05:39;3.63;;;1.67;;
75044;SDS011;63614;56.026;35.960;2023-07-28T14:08:05;5.95;;;1.17;;
75044;SDS011;63614;56.026;35.960;2023-07-28T14:10:31;3.83;;;1.55;;
75044;SDS011;63614;56.026;35.960;2023-07-28T14:13:00;4.30;;;2.08;;
75044;SDS011;63614;56.026;35.960;2023-07-28T14:15:26;3.25;;;2.03;;
75044;SDS011;63614;56.026;35.960;2023-07-28T14:17:52;5.03;;;2.17;;
75044;SDS011;63614;56.026;35.960;2023-07-28T14:20:18;4.72;;;1.58;;
75044;SDS011;63614;56.026;35.960;2023-07-28T14:22:43;3.45;;;1.45;;
75044;SDS011;63614;56.026;35.960;2023-07-28T14:25:09;6.75;;;1.63;;
75044;SDS011;63614;56.026;35.960;2023-07-28T14:27:35;4.40;;;1.60;;
75044;SDS011;63614;56.026;35.960;2023-07-28T14:30:01;3.17;;;1.50;;
75044;SDS011;63614;56.026;35.960;2023-07-28T14:32:29;2.30;;;1.38;;
75044;SDS011;63614;56.026;35.960;2023-07-28T14:34:55;3.15;;;1.80;;
75044;SDS011;63614;56.026;35.960;2023-07-28T14:37:21;3.90;;;1.70;;
75044;SDS011;63614;56.026;35.960;2023-07-28T14:39:47;4.07;;;1.70;;
75044;SDS011;63614;56.026;35.960;2023-07-28T14:42:13;3.50;;;1.60;;